Benedict, North Dakota
Current Conditions -  °F | °C
As of 6:54 PM on Friday 24 Oct 2014 (Local Time) from KMOT Reporting Station
Clear Clear  
Wind Chill: 57°   Ceiling: Unl
Heat Index: 57°   Visibility: 10mi
Dew Point: 26°   Wind: 16mph
Humidity: 30%   Direction: 260°W
Pressure: 29.91"   Gusts: NA
Location:  47.83°N, 101.08°W
Report Text: KMOT 242354Z AUTO 26014KT 10SM CLR 14/M03 A2991 RMK AO2 SLP133 60000 T01391033 10189 20139 53019
Loading
Personal Weather Stations






























Interactive Weather Map
Tropical Storm Tracking
New forecast layout! Learn more

10-Day Weather Forecast

Advertisements
Track Severe Weather on mobile